tititudorancea.com
Station Historical Data
Daily Summary for April 9, 2018 Units:  Metric    English   Both
« Previous Day
Next Day »
Daily Weekly Monthly Yearly Custom
  High: Low: Average:
Temperature: -17.8 °C 12.8 °C 19.6 °C
Dew Point: -17.8 °C 8.4 °C 11.1 °C
Humidity: Humidity % 33 % 62 %
Wind Speed: 0 km/h 0 km/h 3.4 km/h
Wind Gust: 0 km/h - -
Wind:- - WSW
Pressure: 0 hPa 1012.8 hPa -
Precipitation: 0 mm    
Historical Graphs
 
 
Ararat weather Find more about Weather in Ararat, AU


 



 


Tabular Data for April 9, 2018
Time Temperature Dew Point Pressure Wind Wind Speed Wind Gust Humidity Rainfall Rate (Hourly)
-17.8 °C -17.8 °C 0 hPa Calm     Humidity % 0 mm
00:01 18.1 °C 8.6 °C 1014.4 hPa SSW 3.4 km/h 7.4 km/h 54 % 0 mm
00:06 18.2 °C 8.7 °C 1014.4 hPa Calm   1.9 km/h 54 % 0 mm
00:11 18.2 °C 8.5 °C 1014.1 hPa Calm     53 % 0 mm
00:16 18.2 °C 8.5 °C 1014.4 hPa Calm     53 % 0 mm
00:21 18.1 °C 8.7 °C 1014.4 hPa SSW 3.4 km/h 3.7 km/h 54 % 0 mm
00:26 18.2 °C 8.7 °C 1014.4 hPa SSW 2.6 km/h 3.7 km/h 54 % 0 mm
00:31 18.2 °C 8.4 °C 1014.4 hPa SSW 0.2 km/h 3.7 km/h 53 % 0 mm
00:36 18.3 °C 8.6 °C 1014.8 hPa SSW 1.3 km/h 3.7 km/h 53 % 0 mm
00:41 18.4 °C 8.6 °C 1014.4 hPa SSW 3.5 km/h 5.6 km/h 53 % 0 mm
00:46 18.7 °C 9.2 °C 1014.8 hPa SSW 2.9 km/h 6.4 km/h 54 % 0 mm
00:51 18.9 °C 9.1 °C 1014.4 hPa SSW 6.4 km/h 7.4 km/h 53 % 0 mm
00:56 18.9 °C 9.2 °C 1014.8 hPa SSW 0.8 km/h 5.6 km/h 53 % 0 mm
01:01 18.9 °C 9.4 °C 1015.1 hPa SSW 2.6 km/h 5.6 km/h 54 % 0 mm
01:06 18.9 °C 9.4 °C 1014.8 hPa SSW 1.4 km/h 3.7 km/h 54 % 0 mm
01:11 18.8 °C 9.6 °C 1014.8 hPa SSW 4.8 km/h 5.6 km/h 55 % 0 mm
01:16 18.7 °C 9.7 °C 1015.1 hPa SSW 3.2 km/h 5.6 km/h 56 % 0 mm
01:21 18.6 °C 9.9 °C 1015.1 hPa Calm   5.6 km/h 57 % 0 mm
01:26 18.3 °C 9.9 °C 1015.1 hPa SSW 4.2 km/h 5.6 km/h 58 % 0 mm
01:31 18.2 °C 10.1 °C 1015.1 hPa SSW 0.6 km/h 5.6 km/h 59 % 0 mm
01:36 18.1 °C 10.2 °C 1015.1 hPa SSW 2.7 km/h 5.6 km/h 60 % 0 mm
01:41 17.9 °C 10.3 °C 1015.1 hPa SSW 5 km/h 5.6 km/h 61 % 0 mm
01:46 17.7 °C 10.3 °C 1015.1 hPa SSW 4.5 km/h 6.4 km/h 62 % 0 mm
01:51 17.6 °C 10.5 °C 1015.1 hPa SSW 4.2 km/h 7.4 km/h 63 % 0 mm
01:52 17.6 °C 10.5 °C 1015.1 hPa SSW 4 km/h 7.4 km/h 63 % 0 mm
01:56 17.4 °C 10.6 °C 1015.5 hPa SSW 2.9 km/h 7.4 km/h 64 % 0 mm
02:01 17.2 °C 10.3 °C 1015.5 hPa SSW 3.4 km/h 5.6 km/h 64 % 0 mm
02:06 17 °C 10.4 °C 1015.5 hPa SSW 1.3 km/h 4.8 km/h 65 % 0 mm
02:11 16.7 °C 10.6 °C 1015.5 hPa SSW 3.7 km/h 5.6 km/h 67 % 0 mm
02:17 16.6 °C 10.6 °C 1015.5 hPa North 0.2 km/h 5.6 km/h 68 % 0 mm
02:22 16.4 °C 10.4 °C 1015.5 hPa North 2.3 km/h 3.2 km/h 68 % 0 mm
02:27 16.2 °C 10.4 °C 1015.5 hPa South 3.2 km/h 5.6 km/h 69 % 0 mm
02:31 16.1 °C 10.8 °C 1015.8 hPa SSW 1 km/h 5.6 km/h 71 % 0 mm
02:36 16 °C 10.7 °C 1015.5 hPa Calm     71 % 0 mm
02:41 15.8 °C 10.6 °C 1015.5 hPa SSW 1.6 km/h 3.2 km/h 71 % 0 mm
02:46 15.6 °C 10.5 °C 1015.1 hPa SSW 3.2 km/h 5.6 km/h 72 % 0 mm
02:51 15.4 °C 10.6 °C 1015.1 hPa SSW 3.1 km/h 5.6 km/h 73 % 0 mm
02:56 15.4 °C 10.8 °C 1015.1 hPa SSW 1.9 km/h 3.7 km/h 74 % 0 mm
03:01 15.3 °C 10.9 °C 1015.1 hPa SSW 1.3 km/h 3.7 km/h 75 % 0 mm
03:06 15.2 °C 11 °C 1015.1 hPa SSW 4 km/h 5.6 km/h 76 % 0 mm
03:07 15.2 °C 10.9 °C 1015.1 hPa SSW 4 km/h 5.6 km/h 76 % 0 mm
03:12 15.1 °C 10.9 °C 1015.1 hPa SSW 0.6 km/h 3.7 km/h 76 % 0 mm
03:17 15 °C 10.8 °C 1015.1 hPa Calm   1.6 km/h 76 % 0 mm
03:22 14.8 °C 10.8 °C 1015.1 hPa SSW 2.6 km/h 5.6 km/h 77 % 0 mm
03:27 14.7 °C 11.1 °C 1015.5 hPa SSW 1 km/h 3.7 km/h 79 % 0 mm
03:32 14.6 °C 10.9 °C 1015.5 hPa Calm     79 % 0 mm
03:37 14.5 °C 11.3 °C 1015.5 hPa SSW 5.6 km/h 5.6 km/h 81 % 0 mm
03:42 14.5 °C 11.4 °C 1015.5 hPa SSW 5.1 km/h 6.4 km/h 82 % 0 mm
03:47 14.5 °C 11.7 °C 1015.5 hPa SSW 5 km/h 5.6 km/h 83 % 0 mm
03:52 14.5 °C 11.7 °C 1015.5 hPa North 4.7 km/h 5.6 km/h 83 % 0 mm
03:57 14.6 °C 11.9 °C 1015.5 hPa SSW 4.7 km/h 5.6 km/h 84 % 0 mm
04:02 14.5 °C 11.8 °C 1015.5 hPa SSW 3.7 km/h 5.6 km/h 84 % 0 mm
04:07 14.5 °C 12 °C 1015.5 hPa SSW 3.4 km/h 5.6 km/h 85 % 0 mm
04:12 14.4 °C 11.9 °C 1015.8 hPa South 3.4 km/h 5.6 km/h 85 % 0 mm
04:17 14.4 °C 11.9 °C 1015.8 hPa SSW 2.4 km/h 3.7 km/h 85 % 0 mm
04:22 14.4 °C 12.1 °C 1015.8 hPa SSW 1.3 km/h 3.7 km/h 86 % 0 mm
04:27 14.3 °C 12 °C 1015.8 hPa Calm   1.9 km/h 86 % 0 mm
04:32 14.3 °C 11.9 °C 1015.8 hPa SSW 1.4 km/h 5.6 km/h 86 % 0 mm
04:37 14.3 °C 12.2 °C 1016.1 hPa Calm   1.6 km/h 87 % 0 mm
04:42 14.2 °C 12.1 °C 1016.1 hPa Calm     87 % 0 mm
04:47 14.2 °C 12.1 °C 1016.1 hPa Calm     87 % 0 mm
04:52 14.1 °C 12.2 °C 1016.1 hPa North 0.3 km/h 3.7 km/h 88 % 0 mm
04:57 14 °C 12.1 °C 1016.1 hPa North 1.4 km/h 3.7 km/h 88 % 0 mm
05:02 13.8 °C 11.7 °C 1015.8 hPa North 4.3 km/h 5.6 km/h 87 % 0 mm
05:07 13.7 °C 11.7 °C 1016.1 hPa SSW 4.5 km/h 5.6 km/h 88 % 0 mm
05:12 13.7 °C 11.9 °C 1016.1 hPa Calm   1.9 km/h 89 % 0 mm
05:17 13.6 °C 11.8 °C 1016.1 hPa North 1.4 km/h 3.7 km/h 89 % 0 mm
05:22 13.4 °C 11.6 °C 1016.1 hPa North 3.4 km/h 5.6 km/h 89 % 0 mm
05:27 13.3 °C 11.7 °C 1016.1 hPa SSW 3.4 km/h 5.6 km/h 90 % 0 mm
05:32 13.3 °C 11.7 °C 1016.1 hPa SSW 4.2 km/h 5.6 km/h 90 % 0 mm
05:37 13.3 °C 11.8 °C 1016.5 hPa SSW 5 km/h 5.6 km/h 91 % 0 mm
05:42 13.3 °C 11.8 °C 1016.5 hPa SSW 2.4 km/h 7.4 km/h 91 % 0 mm
05:47 13.1 °C 11.5 °C 1016.5 hPa SSW 1 km/h 3.7 km/h 90 % 0 mm
05:52 13 °C 11.6 °C 1016.5 hPa SSW 3.9 km/h 7.4 km/h 91 % 0 mm
05:57 12.9 °C 11.5 °C 1016.5 hPa North 3.9 km/h 7.4 km/h 91 % 0 mm
06:02 12.9 °C 11.7 °C 1016.8 hPa SSW 6.1 km/h 9.3 km/h 92 % 0 mm
06:07 13 °C 11.7 °C 1016.8 hPa North 2.6 km/h 3.7 km/h 92 % 0 mm
06:12 13 °C 11.7 °C 1016.8 hPa SSW 2.4 km/h 5.6 km/h 92 % 0 mm
06:17 13 °C 11.7 °C 1016.8 hPa SSW 1.4 km/h 3.7 km/h 92 % 0 mm
06:22 13 °C 11.9 °C 1016.8 hPa SSW 6.9 km/h 7.4 km/h 93 % 0 mm
06:27 12.9 °C 11.8 °C 1016.8 hPa South 7.7 km/h 11.1 km/h 93 % 0 mm
06:32 12.9 °C 11.8 °C 1016.8 hPa North 5.5 km/h 7.4 km/h 93 % 0 mm
06:37 12.9 °C 11.8 °C 1016.8 hPa SSW 5.5 km/h 5.6 km/h 93 % 0 mm
06:42 12.9 °C 11.8 °C 1016.8 hPa SSW 4 km/h 5.6 km/h 93 % 0 mm
06:47 12.8 °C 11.7 °C 1016.8 hPa North 5.8 km/h 6.4 km/h 93 % 0 mm
06:52 12.9 °C 11.9 °C 1016.8 hPa SSW 0.2 km/h 3.7 km/h 94 % 0 mm
06:57 12.9 °C 11.9 °C 1016.8 hPa SSW 0.5 km/h 3.2 km/h 94 % 0 mm
07:02 13 °C 12.1 °C 1016.8 hPa North 5.3 km/h 7.4 km/h 94 % 0 mm
07:07 13 °C 12.1 °C 1017.2 hPa North 2.7 km/h 4.8 km/h 94 % 0 mm
07:12 13.1 °C 12.1 °C 1017.2 hPa SSW 3.5 km/h 7.4 km/h 94 % 0 mm
07:17 13.1 °C 12.2 °C 1017.5 hPa North 6.4 km/h 7.4 km/h 94 % 0 mm
07:22 13.1 °C 12.2 °C 1017.5 hPa SSW 7.1 km/h 9.3 km/h 94 % 0 mm
07:27 13.2 °C 12.2 °C 1017.5 hPa North 7.1 km/h 9.3 km/h 94 % 0 mm
07:32 13.2 °C 12.2 °C 1017.8 hPa North 6.3 km/h 9.3 km/h 94 % 0 mm
07:37 13.2 °C 12.4 °C 1017.8 hPa North 0.5 km/h 3.2 km/h 95 % 0 mm
07:42 13.2 °C 12.4 °C 1017.5 hPa North 5.5 km/h 7.4 km/h 95 % 0 mm
07:47 13.2 °C 12.4 °C 1017.5 hPa SSW 2.4 km/h 6.4 km/h 95 % 0 mm
07:52 13.2 °C 12.4 °C 1017.5 hPa South 4.3 km/h 5.6 km/h 95 % 0 mm
07:57 13.3 °C 12.5 °C 1017.5 hPa SSW 1.1 km/h 3.7 km/h 95 % 0 mm
08:02 13.4 °C 12.6 °C 1017.5 hPa South 3.1 km/h 5.6 km/h 95 % 0 mm
08:07 13.4 °C 12.6 °C 1017.5 hPa South 4.3 km/h 5.6 km/h 95 % 0 mm
08:12 13.4 °C 12.7 °C 1017.5 hPa SSW 0.6 km/h 5.6 km/h 95 % 0 mm
08:17 13.6 °C 12.8 °C 1017.5 hPa North 1 km/h 3.2 km/h 95 % 0 mm
08:22 13.6 °C 12.8 °C 1017.5 hPa SSW 5.1 km/h 7.4 km/h 95 % 0 mm
08:27 13.6 °C 12.8 °C 1017.5 hPa North 4.2 km/h 5.6 km/h 95 % 0 mm
08:32 13.6 °C 12.8 °C 1017.5 hPa SSW 6.3 km/h 8 km/h 95 % 0 mm
08:37 13.6 °C 12.8 °C 1017.8 hPa South 6.6 km/h 9.3 km/h 95 % 0 mm
08:43 13.6 °C 12.8 °C 1017.8 hPa South 3.7 km/h 3.7 km/h 95 % 0 mm
08:48 13.6 °C 12.8 °C 1017.8 hPa North 4.2 km/h 9.7 km/h 95 % 0 mm
08:53 13.7 °C 12.9 °C 1017.8 hPa South 6.1 km/h 7.4 km/h 95 % 0 mm
08:58 13.8 °C 13 °C 1017.8 hPa North 5.1 km/h 7.4 km/h 95 % 0 mm
09:03 13.8 °C 13.1 °C 1017.8 hPa South 2.7 km/h 5.6 km/h 95 % 0 mm
09:08 13.9 °C 13.3 °C 1017.8 hPa South 2.3 km/h 5.6 km/h 96 % 0 mm
09:13 14.1 °C 13.5 °C 1017.8 hPa South 4.8 km/h 7.4 km/h 96 % 0 mm
09:18 13.9 °C 13.2 °C 1017.8 hPa North 7.9 km/h 7.9 km/h 95 % 0 mm
09:23 14.1 °C 13.4 °C 1017.8 hPa North 7.2 km/h 13 km/h 96 % 0 mm
09:28 14.1 °C 13.3 °C 1017.8 hPa South 9.2 km/h 13 km/h 95 % 0 mm
09:33 14.3 °C 13.7 °C 1017.8 hPa North 6.6 km/h 9.7 km/h 96 % 0 mm
09:38 14.4 °C 13.8 °C 1017.8 hPa North 8.9 km/h 11.1 km/h 96 % 0 mm
09:43 14.6 °C 13.8 °C 1017.8 hPa South 4.5 km/h 5.6 km/h 95 % 0 mm
09:48 14.8 °C 14.2 °C 1017.8 hPa North 5.5 km/h 8 km/h 96 % 0 mm
09:53 14.9 °C 14.2 °C 1017.8 hPa North 5.1 km/h 9.3 km/h 95 % 0 mm
09:58 15.2 °C 14.4 °C 1017.8 hPa North 7.1 km/h 9.7 km/h 95 % 0 mm
10:03 15.7 °C 14.9 °C 1017.8 hPa North 6.6 km/h 9.3 km/h 95 % 0 mm
10:08 16.2 °C 15.1 °C 1017.8 hPa South 5.6 km/h 11.3 km/h 93 % 0 mm
10:13 16.5 °C 15.2 °C 1017.8 hPa South 5.6 km/h 12.9 km/h 92 % 0 mm
10:18 16.8 °C 14.8 °C 1017.5 hPa South 10.5 km/h 13 km/h 88 % 0 mm
10:23 17.3 °C 14.9 °C 1017.5 hPa North 7.4 km/h 14.8 km/h 86 % 0 mm
10:28 17.8 °C 14.8 °C 1017.5 hPa North 7.6 km/h 11.1 km/h 83 % 0 mm
10:33 18.2 °C 14.7 °C 1017.5 hPa South 6.9 km/h 14.8 km/h 80 % 0 mm
10:38 18.5 °C 14.6 °C 1017.5 hPa South 8 km/h 11.3 km/h 78 % 0 mm
10:43 18.9 °C 14.6 °C 1017.5 hPa South 10.6 km/h 16.7 km/h 76 % 0 mm
10:48 19.1 °C 14.3 °C 1017.5 hPa South 4.7 km/h 6.4 km/h 74 % 0 mm
10:53 19.6 °C 14.4 °C 1017.5 hPa SSW 11.3 km/h 11.3 km/h 72 % 0 mm
10:58 19.9 °C 14.1 °C 1017.5 hPa SSW 9.8 km/h 14.8 km/h 69 % 0 mm
11:03 20.2 °C 14.1 °C 1017.2 hPa SSW 4.7 km/h 7.4 km/h 68 % 0 mm
11:08 20.4 °C 13.9 °C 1017.2 hPa South 10.6 km/h 16.7 km/h 66 % 0 mm
11:13 20.7 °C 13.9 °C 1017.2 hPa SSW 5.6 km/h 9.3 km/h 65 % 0 mm
11:18 21.3 °C 13.7 °C 1017.2 hPa SSW 7.7 km/h 13 km/h 62 % 0 mm
11:23 21.4 °C 13.6 °C 1017.2 hPa SSW 1.4 km/h 7.4 km/h 61 % 0 mm
11:28 21.4 °C 13.1 °C 1017.2 hPa SSW 9.3 km/h 14.8 km/h 59 % 0 mm
11:33 21.4 °C 12.8 °C 1017.2 hPa SSW 9 km/h 16.1 km/h 58 % 0 mm
11:38 21.8 °C 13.2 °C 1017.2 hPa South 8.4 km/h 11.3 km/h 58 % 0 mm
11:43 22.1 °C 11.2 °C 1017.2 hPa SSW 7.2 km/h 9.3 km/h 50 % 0 mm
11:48 22.4 °C 12.1 °C 1016.8 hPa North 3.4 km/h 5.6 km/h 52 % 0 mm
11:53 22.7 °C 12.7 °C 1016.8 hPa North 11.4 km/h 13 km/h 53 % 0 mm
11:58 22.8 °C 12.1 °C 1016.8 hPa SSW 4.8 km/h 6.4 km/h 51 % 0 mm
12:03 23 °C 11.7 °C 1016.8 hPa SSW 3.9 km/h 11.1 km/h 49 % 0 mm
12:08 23.2 °C 11.3 °C 1016.8 hPa SSW 8.5 km/h 13 km/h 47 % 0 mm
12:13 23.3 °C 11 °C 1016.8 hPa SSW 5.6 km/h 9.3 km/h 46 % 0 mm
12:18 23.6 °C 10.6 °C 1016.5 hPa SSW 7.1 km/h 11.1 km/h 44 % 0 mm
12:23 24 °C 10.3 °C 1016.5 hPa South 5.6 km/h 7.4 km/h 42 % 0 mm
12:28 24.3 °C 10.6 °C 1016.5 hPa South 4.5 km/h 9.3 km/h 42 % 0 mm
12:33 24.7 °C 10.6 °C 1016.5 hPa South 8.4 km/h 11.1 km/h 41 % 0 mm
12:38 24.4 °C 9.9 °C 1016.5 hPa South 0.8 km/h 3.7 km/h 40 % 0 mm
12:43 24.4 °C 9.9 °C 1016.5 hPa South 6.6 km/h 9.3 km/h 40 % 0 mm
12:48 24.7 °C 9.8 °C 1016.5 hPa South 2.3 km/h 4.8 km/h 39 % 0 mm
12:53 25.3 °C 9.1 °C 1016.1 hPa South 1.4 km/h 3.7 km/h 36 % 0 mm
12:58 25.7 °C 9.5 °C 1016.1 hPa South 2.6 km/h 5.6 km/h 36 % 0 mm
13:03 26 °C 9.8 °C 1016.1 hPa South 0.5 km/h 3.7 km/h 36 % 0 mm
13:08 26.1 °C 9.4 °C 1016.1 hPa SSW 1.4 km/h 7.4 km/h 35 % 0 mm
13:13 25.8 °C 9.6 °C 1015.8 hPa South 1.8 km/h 3.7 km/h 36 % 0 mm
13:18 25.7 °C 9.5 °C 1015.8 hPa South 5.8 km/h 11.1 km/h 36 % 0 mm
13:23 25.5 °C 9.7 °C 1015.8 hPa South 4.2 km/h 8 km/h 37 % 0 mm
13:28 25.6 °C 10.2 °C 1015.8 hPa South 4.8 km/h 5.6 km/h 38 % 0 mm
13:33 25.9 °C 10.1 °C 1015.5 hPa Calm   1.9 km/h 37 % 0 mm
13:38 26.2 °C 9.9 °C 1015.5 hPa South 1 km/h 5.6 km/h 36 % 0 mm
13:43 26.3 °C 10.1 °C 1015.5 hPa South 8.4 km/h 9.7 km/h 36 % 0 mm
13:48 26.2 °C 9.9 °C 1015.1 hPa SSW 2.6 km/h 11.1 km/h 36 % 0 mm
13:53 26.2 °C 9.9 °C 1015.5 hPa SSW 7.2 km/h 9.3 km/h 36 % 0 mm
13:58 26.1 °C 10.3 °C 1015.1 hPa SSW 4.3 km/h 5.6 km/h 37 % 0 mm
14:04 26.2 °C 10.3 °C 1015.1 hPa SSW 3.1 km/h 6.4 km/h 37 % 0 mm
14:09 26.2 °C 10.4 °C 1015.1 hPa SSW 5.1 km/h 9.7 km/h 37 % 0 mm
14:14 26.2 °C 9.9 °C 1014.8 hPa SSW 6 km/h 9.3 km/h 36 % 0 mm
14:19 26.5 °C 10.2 °C 1014.8 hPa SSW 0.5 km/h 1.9 km/h 36 % 0 mm
14:24 26.8 °C 10.1 °C 1014.8 hPa SSW 7.4 km/h 9.7 km/h 35 % 0 mm
14:29 26.8 °C 10.1 °C 1014.8 hPa SSW 0.3 km/h 5.6 km/h 35 % 0 mm
14:34 27.1 °C 9.8 °C 1014.4 hPa SSW 10.1 km/h 13 km/h 34 % 0 mm
14:39 26.6 °C 10.3 °C 1014.4 hPa SSW 7.7 km/h 9.3 km/h 36 % 0 mm
14:44 26.4 °C 10.2 °C 1014.4 hPa SSW 5 km/h 7.4 km/h 36 % 0 mm
14:49 26.6 °C 10.3 °C 1014.4 hPa SSW 2.1 km/h 5.6 km/h 36 % 0 mm
14:54 26.8 °C 10.4 °C 1014.4 hPa SSW 2.6 km/h 3.7 km/h 36 % 0 mm
14:59 27.2 °C 10.4 °C 1014.4 hPa SSW 1.6 km/h 7.4 km/h 35 % 0 mm
15:04 27.7 °C 10.8 °C 1014.4 hPa SSW 3.4 km/h 6.4 km/h 35 % 0 mm
15:09 28 °C 10.2 °C 1014.1 hPa SSW 7.9 km/h 11.1 km/h 33 % 0 mm
15:14 27.7 °C 10.4 °C 1014.1 hPa SSW 3.4 km/h 5.6 km/h 34 % 0 mm
15:19 28.1 °C 10.7 °C 1014.1 hPa SSW 5.3 km/h 7.4 km/h 34 % 0 mm
15:24 27.8 °C 10.5 °C 1014.1 hPa SSW 5.6 km/h 7.4 km/h 34 % 0 mm
15:29 27.7 °C 10.4 °C 1014.1 hPa Calm   1.9 km/h 34 % 0 mm
15:34 27.7 °C 10.9 °C 1014.1 hPa SSW 5.6 km/h 6.4 km/h 35 % 0 mm
15:39 27.6 °C 10.3 °C 1014.1 hPa SSW 2.7 km/h 4.8 km/h 34 % 0 mm
15:44 27.4 °C 10.6 °C 1014.1 hPa Calm     35 % 0 mm
15:49 27.4 °C 10.6 °C 1014.1 hPa SSW 3.1 km/h 5.6 km/h 35 % 0 mm
15:54 27.2 °C 10.4 °C 1014.1 hPa Calm     35 % 0 mm
15:59 27.4 °C 10.6 °C 1014.1 hPa SSW 0.8 km/h 5.6 km/h 35 % 0 mm
16:04 27.9 °C 10.6 °C 1014.1 hPa SSW 1.6 km/h 5.6 km/h 34 % 0 mm
16:09 28.1 °C 10.8 °C 1013.8 hPa SSW 4.5 km/h 6.4 km/h 34 % 0 mm
16:14 28.1 °C 10.7 °C 1014.1 hPa SSW 0.8 km/h 5.6 km/h 34 % 0 mm
16:19 28.1 °C 10.7 °C 1014.1 hPa SSW 1.6 km/h 3.7 km/h 34 % 0 mm
16:24 27.8 °C 10.5 °C 1014.1 hPa SSW 2.9 km/h 5.6 km/h 34 % 0 mm
16:29 27.6 °C 10.8 °C 1014.1 hPa SSW 3.7 km/h 5.6 km/h 35 % 0 mm
16:34 27.8 °C 10.5 °C 1014.1 hPa SSW 2.1 km/h 3.7 km/h 34 % 0 mm
16:39 28.1 °C 10.8 °C 1014.1 hPa SSW 3.9 km/h 5.6 km/h 34 % 0 mm
16:44 27.9 °C 10.6 °C 1014.1 hPa SSW 3.4 km/h 5.6 km/h 34 % 0 mm
16:49 27.7 °C 10.4 °C 1013.8 hPa SSW 0.2 km/h 1.9 km/h 34 % 0 mm
16:54 27.8 °C 10.9 °C 1013.8 hPa Calm   1.9 km/h 35 % 0 mm
16:59 28.1 °C 10.7 °C 1013.8 hPa SSW 4.2 km/h 5.6 km/h 34 % 0 mm
17:04 27.9 °C 11.1 °C 1013.8 hPa WSW 2.7 km/h 5.6 km/h 35 % 0 mm
17:09 27.8 °C 10.9 °C 1013.8 hPa West 8.5 km/h 11.1 km/h 35 % 0 mm
17:14 27.6 °C 10.7 °C 1013.8 hPa West 3.9 km/h 5.6 km/h 35 % 0 mm
17:19 27.6 °C 10.8 °C 1013.8 hPa West 2.3 km/h 3.7 km/h 35 % 0 mm
17:24 27.7 °C 10.9 °C 1013.8 hPa West 1.4 km/h 3.7 km/h 35 % 0 mm
17:29 27.6 °C 11.2 °C 1013.8 hPa North 4 km/h 5.6 km/h 36 % 0 mm
17:34 27.5 °C 11.1 °C 1013.8 hPa West 5.3 km/h 7.4 km/h 36 % 0 mm
17:39 27.3 °C 10.9 °C 1014.1 hPa West 5.8 km/h 7.4 km/h 36 % 0 mm
17:44 27.2 °C 10.8 °C 1014.1 hPa West 1 km/h 3.7 km/h 36 % 0 mm
17:49 27.1 °C 11.2 °C 1014.1 hPa North 2.4 km/h 3.7 km/h 37 % 0 mm
17:54 27 °C 11.1 °C 1014.1 hPa Calm   1.6 km/h 37 % 0 mm
17:59 26.8 °C 11.3 °C 1014.1 hPa Calm     38 % 0 mm
18:04 26.6 °C 11.1 °C 1013.8 hPa Calm     38 % 0 mm
18:09 26.3 °C 11.2 °C 1014.1 hPa Calm     39 % 0 mm
18:14 25.8 °C 11.2 °C 1014.1 hPa Calm     40 % 0 mm
18:19 25.4 °C 11.2 °C 1014.1 hPa Calm     41 % 0 mm
18:24 25.2 °C 11.3 °C 1014.1 hPa Calm     42 % 0 mm
18:29 24.8 °C 11.3 °C 1014.1 hPa Calm     43 % 0 mm
18:34 23.9 °C 11.3 °C 1014.1 hPa Calm     45 % 0 mm
18:39 23.6 °C 11.6 °C 1014.1 hPa Calm     47 % 0 mm
18:44 23.3 °C 11.7 °C 1014.1 hPa Calm     48 % 0 mm
18:49 22.9 °C 11.7 °C 1014.1 hPa Calm     49 % 0 mm
18:54 22.7 °C 11.7 °C 1014.1 hPa Calm     50 % 0 mm
18:59 22.3 °C 11.3 °C 1014.1 hPa West 1.4 km/h 3.7 km/h 50 % 0 mm
19:04 21.8 °C 11.8 °C 1014.1 hPa Calm     53 % 0 mm
19:09 21.4 °C 12 °C 1014.1 hPa Calm     55 % 0 mm
19:14 21.1 °C 12 °C 1014.1 hPa Calm     56 % 0 mm
19:19 20.9 °C 11.8 °C 1014.1 hPa Calm     56 % 0 mm
19:24 20.8 °C 11.7 °C 1014.1 hPa Calm     56 % 0 mm
19:29 20.7 °C 11.6 °C 1014.1 hPa Calm     56 % 0 mm
19:34 20.5 °C 11.7 °C 1014.1 hPa Calm     57 % 0 mm
19:39 20.3 °C 11.7 °C 1014.1 hPa Calm     58 % 0 mm
19:44 20 °C 11.5 °C 1014.1 hPa Calm     58 % 0 mm
19:49 19.7 °C 11.5 °C 1014.1 hPa Calm     59 % 0 mm
19:54 19.6 °C 11.6 °C 1014.1 hPa Calm     60 % 0 mm
19:59 19.4 °C 11.7 °C 1014.1 hPa Calm     61 % 0 mm
20:04 19 °C 11.6 °C 1014.1 hPa Calm     62 % 0 mm
20:09 18.8 °C 11.6 °C 1014.1 hPa Calm     63 % 0 mm
20:14 18.8 °C 11.6 °C 1014.1 hPa Calm     63 % 0 mm
20:19 18.8 °C 11.6 °C 1014.1 hPa Calm     63 % 0 mm
20:24 18.7 °C 11.6 °C 1014.1 hPa Calm     63 % 0 mm
20:29 18.6 °C 11.4 °C 1014.1 hPa Calm     63 % 0 mm
20:34 18.4 °C 11.4 °C 1014.1 hPa Calm     64 % 0 mm
20:39 18.2 °C 11.6 °C 1014.1 hPa Calm     65 % 0 mm
20:44 18.1 °C 11.4 °C 1014.1 hPa Calm     65 % 0 mm
20:49 18.1 °C 11.4 °C 1013.8 hPa North 0.2 km/h   65 % 0 mm
20:54 17.9 °C 11.3 °C 1013.8 hPa Calm   1.9 km/h 65 % 0 mm
20:59 17.9 °C 11 °C 1013.8 hPa West 0.5 km/h 3.2 km/h 64 % 0 mm
21:04 17.9 °C 11 °C 1013.8 hPa Calm   3.2 km/h 64 % 0 mm
21:09 18.2 °C 10.8 °C 1013.8 hPa West 4 km/h 5.6 km/h 62 % 0 mm
21:14 18.8 °C 10.6 °C 1013.8 hPa North 3.1 km/h 5.6 km/h 59 % 0 mm
21:19 19.2 °C 10.4 °C 1013.8 hPa West 2.3 km/h 3.7 km/h 57 % 0 mm
21:24 19.7 °C 10.4 °C 1013.8 hPa North 1.4 km/h 5.6 km/h 55 % 0 mm
21:29 20.2 °C 10.6 °C 1013.8 hPa West 3.1 km/h 5.6 km/h 54 % 0 mm
21:34 20.4 °C 10.6 °C 1013.8 hPa West 1.9 km/h 3.7 km/h 53 % 0 mm
21:39 20.5 °C 10.3 °C 1013.8 hPa West 3.7 km/h 5.6 km/h 52 % 0 mm
21:44 20.6 °C 10.4 °C 1013.8 hPa West 3.9 km/h 7.4 km/h 52 % 0 mm
21:49 20.9 °C 10.1 °C 1013.8 hPa West 5.8 km/h 7.4 km/h 50 % 0 mm
21:54 21.1 °C 10.3 °C 1013.8 hPa West 6.3 km/h 9.3 km/h 50 % 0 mm
21:59 21.2 °C 10.1 °C 1013.8 hPa West 4.5 km/h 5.6 km/h 49 % 0 mm
22:04 21.3 °C 10.1 °C 1013.8 hPa West 6.8 km/h 9.3 km/h 49 % 0 mm
22:09 21.3 °C 10.1 °C 1013.4 hPa West 6.8 km/h 8 km/h 49 % 0 mm
22:14 21.2 °C 10.1 °C 1013.4 hPa West 6.6 km/h 9.3 km/h 49 % 0 mm
22:19 21.2 °C 10 °C 1013.4 hPa WNW 7.2 km/h 11.1 km/h 49 % 0 mm
22:24 21.1 °C 10 °C 1013.4 hPa WNW 3.9 km/h 5.6 km/h 49 % 0 mm
22:29 20.9 °C 9.8 °C 1013.4 hPa WNW 3.9 km/h 5.6 km/h 49 % 0 mm
22:34 20.7 °C 9.9 °C 1013.4 hPa WNW 4.8 km/h 5.6 km/h 50 % 0 mm
22:39 20.6 °C 9.8 °C 1013.1 hPa WNW 9.3 km/h 13 km/h 50 % 0 mm
22:44 20.6 °C 9.8 °C 1013.1 hPa WNW 4.8 km/h 9.3 km/h 50 % 0 mm
22:54 20.7 °C 9.6 °C 1013.1 hPa WNW 6.8 km/h 9.3 km/h 49 % 0 mm
22:59 20.8 °C 9.7 °C 1013.4 hPa WNW 4.8 km/h 7.4 km/h 49 % 0 mm
23:04 20.6 °C 9.5 °C 1013.1 hPa North 3.1 km/h 5.6 km/h 49 % 0 mm
23:09 20.6 °C 9.4 °C 1013.1 hPa WNW 6.8 km/h 9.7 km/h 49 % 0 mm
23:14 20.6 °C 9.2 °C 1013.1 hPa WNW 6.6 km/h 7.4 km/h 48 % 0 mm
23:19 20.7 °C 9.3 °C 1013.1 hPa WNW 5.1 km/h 5.6 km/h 48 % 0 mm
23:24 20.6 °C 9.2 °C 1013.1 hPa North 6 km/h 8 km/h 48 % 0 mm
23:29 20.6 °C 9.4 °C 1013.1 hPa WNW 6 km/h 7.4 km/h 49 % 0 mm
23:34 20.4 °C 9.3 °C 1013.1 hPa WNW 1.8 km/h 5.6 km/h 49 % 0 mm
23:39 20.1 °C 9.3 °C 1013.1 hPa WNW 1.6 km/h 1.9 km/h 50 % 0 mm
23:44 19.8 °C 9.4 °C 1013.1 hPa North 2.7 km/h 5.6 km/h 51 % 0 mm
23:49 19.7 °C 9.6 °C 1013.1 hPa WNW 0.6 km/h   52 % 0 mm
23:54 19.6 °C 9.4 °C 1013.1 hPa WNW 4.2 km/h 6.4 km/h 52 % 0 mm
23:59 19.6 °C 9.5 °C 1012.8 hPa North 3.4 km/h 5.6 km/h 52 % 0 mm
Ararat Weather
Compliments of Weather Underground - 2.5 mb
Click here to send mail.


ABOUT

Live weather data from Ararat, Victoria, Australia, 3377
Data uploaded from Cumulus every 5 minutes to Weather Underground.
This site then downloads the raw data for formatting and display.
Metric and imperial data can be displayed. Graphs and historical data available.
Includes Sun and Moon times and rain image live from BOM.

Check out Ararat Weather on Facebook, Twitter and Google +

Help support ongoing costs by checking out the ads





Follow @AraratWeather